Terminal Aerodrome Forecast
Issued by NWS

Home | Current Version | Previous Version | Text Only | Print | Product List | Glossary On
Versions: 1 2 3 4 5 6 7 8 9 10 11 12 13
249
FTUS43 KMQT 201724
TAFCMX
TAF
KCMX 201724Z 2018/2118 17006KT P6SM FEW250
     FM210100 19009KT P6SM FEW250 WS010/21040KT
     FM211500 17010KT P6SM BKN150=

USA.gov is the U.S. government's official web portal to all federal, state and local government web resources and services.